sensor_id;sensor_type;location;lat;lon;timestamp;temperature;humidity
13569;DHT22;6856;51.460;7.158;2024-03-22T00:02:28;14.00;59.80
13569;DHT22;6856;51.460;7.158;2024-03-22T00:05:01;14.00;60.00
13569;DHT22;6856;51.460;7.158;2024-03-22T00:07:35;14.20;59.90
13569;DHT22;6856;51.460;7.158;2024-03-22T00:10:10;14.00;59.80
13569;DHT22;6856;51.460;7.158;2024-03-22T00:12:49;14.00;59.70
13569;DHT22;6856;51.460;7.158;2024-03-22T00:15:21;14.00;60.20
13569;DHT22;6856;51.460;7.158;2024-03-22T00:17:54;14.00;60.10
13569;DHT22;6856;51.460;7.158;2024-03-22T00:20:26;14.00;60.20
13569;DHT22;6856;51.460;7.158;2024-03-22T00:23:00;14.00;60.30
13569;DHT22;6856;51.460;7.158;2024-03-22T00:25:35;14.00;60.30
13569;DHT22;6856;51.460;7.158;2024-03-22T00:28:07;14.00;60.30
13569;DHT22;6856;51.460;7.158;2024-03-22T00:30:39;14.00;60.00
13569;DHT22;6856;51.460;7.158;2024-03-22T00:33:20;14.00;60.50
13569;DHT22;6856;51.460;7.158;2024-03-22T00:35:52;14.00;60.50
13569;DHT22;6856;51.460;7.158;2024-03-22T00:38:26;14.00;60.60
13569;DHT22;6856;51.460;7.158;2024-03-22T00:41:01;14.00;60.80
13569;DHT22;6856;51.460;7.158;2024-03-22T00:43:35;14.00;60.80
13569;DHT22;6856;51.460;7.158;2024-03-22T00:46:08;14.00;60.70
13569;DHT22;6856;51.460;7.158;2024-03-22T00:48:43;14.10;60.90
13569;DHT22;6856;51.460;7.158;2024-03-22T00:51:15;14.10;61.00
13569;DHT22;6856;51.460;7.158;2024-03-22T00:53:50;14.10;60.90
13569;DHT22;6856;51.460;7.158;2024-03-22T00:56:23;14.10;61.00
13569;DHT22;6856;51.460;7.158;2024-03-22T00:58:57;14.10;61.10
13569;DHT22;6856;51.460;7.158;2024-03-22T01:01:28;14.10;61.20
13569;DHT22;6856;51.460;7.158;2024-03-22T01:04:01;14.20;61.20
13569;DHT22;6856;51.460;7.158;2024-03-22T01:06:34;14.20;61.20
13569;DHT22;6856;51.460;7.158;2024-03-22T01:09:07;14.20;61.20
13569;DHT22;6856;51.460;7.158;2024-03-22T01:11:42;14.20;61.20
13569;DHT22;6856;51.460;7.158;2024-03-22T01:14:17;14.20;61.30
13569;DHT22;6856;51.460;7.158;2024-03-22T01:16:48;14.20;61.30
13569;DHT22;6856;51.460;7.158;2024-03-22T01:19:21;14.30;61.40
13569;DHT22;6856;51.460;7.158;2024-03-22T01:21:55;14.30;61.30
13569;DHT22;6856;51.460;7.158;2024-03-22T01:24:28;14.30;61.50
13569;DHT22;6856;51.460;7.158;2024-03-22T01:27:03;14.30;61.50
13569;DHT22;6856;51.460;7.158;2024-03-22T01:29:37;14.30;61.80
13569;DHT22;6856;51.460;7.158;2024-03-22T01:32:12;14.30;61.60
13569;DHT22;6856;51.460;7.158;2024-03-22T01:34:45;14.30;61.80
13569;DHT22;6856;51.460;7.158;2024-03-22T01:37:17;14.40;61.80
13569;DHT22;6856;51.460;7.158;2024-03-22T01:39:50;14.40;61.90
13569;DHT22;6856;51.460;7.158;2024-03-22T01:42:24;14.40;61.80
13569;DHT22;6856;51.460;7.158;2024-03-22T01:44:57;14.40;62.40
13569;DHT22;6856;51.460;7.158;2024-03-22T01:47:29;14.50;61.90
13569;DHT22;6856;51.460;7.158;2024-03-22T01:50:02;14.50;62.00
13569;DHT22;6856;51.460;7.158;2024-03-22T01:52:33;14.50;62.20
13569;DHT22;6856;51.460;7.158;2024-03-22T01:55:07;14.50;62.10
13569;DHT22;6856;51.460;7.158;2024-03-22T01:57:43;14.50;62.00
13569;DHT22;6856;51.460;7.158;2024-03-22T02:00:16;14.50;62.10
13569;DHT22;6856;51.460;7.158;2024-03-22T02:02:48;14.50;62.10
13569;DHT22;6856;51.460;7.158;2024-03-22T02:05:21;14.60;62.00
13569;DHT22;6856;51.460;7.158;2024-03-22T02:07:56;14.60;61.90
13569;DHT22;6856;51.460;7.158;2024-03-22T02:10:29;14.60;61.90
13569;DHT22;6856;51.460;7.158;2024-03-22T02:13:03;14.50;62.00
13569;DHT22;6856;51.460;7.158;2024-03-22T02:15:38;14.60;61.80
13569;DHT22;6856;51.460;7.158;2024-03-22T02:18:10;14.60;61.80
13569;DHT22;6856;51.460;7.158;2024-03-22T02:20:44;14.60;61.90
13569;DHT22;6856;51.460;7.158;2024-03-22T02:23:16;14.60;62.00
13569;DHT22;6856;51.460;7.158;2024-03-22T02:25:50;14.60;62.00
13569;DHT22;6856;51.460;7.158;2024-03-22T02:28:22;14.60;62.00
13569;DHT22;6856;51.460;7.158;2024-03-22T02:30:55;14.60;62.10
13569;DHT22;6856;51.460;7.158;2024-03-22T02:33:27;14.60;62.00
13569;DHT22;6856;51.460;7.158;2024-03-22T02:36:00;14.60;62.00
13569;DHT22;6856;51.460;7.158;2024-03-22T02:38:33;14.70;62.00
13569;DHT22;6856;51.460;7.158;2024-03-22T02:41:07;14.70;62.00
13569;DHT22;6856;51.460;7.158;2024-03-22T02:43:39;14.70;62.10
13569;DHT22;6856;51.460;7.158;2024-03-22T02:46:12;14.70;62.00
13569;DHT22;6856;51.460;7.158;2024-03-22T02:48:43;14.70;62.10
13569;DHT22;6856;51.460;7.158;2024-03-22T02:51:16;14.70;62.10
13569;DHT22;6856;51.460;7.158;2024-03-22T02:53:48;14.70;62.20
13569;DHT22;6856;51.460;7.158;2024-03-22T02:56:23;14.70;62.20
13569;DHT22;6856;51.460;7.158;2024-03-22T02:58:54;14.70;62.20
13569;DHT22;6856;51.460;7.158;2024-03-22T03:01:28;14.70;62.30
13569;DHT22;6856;51.460;7.158;2024-03-22T03:04:00;14.70;62.20
13569;DHT22;6856;51.460;7.158;2024-03-22T03:06:33;14.70;62.20
13569;DHT22;6856;51.460;7.158;2024-03-22T03:09:05;14.70;62.40
13569;DHT22;6856;51.460;7.158;2024-03-22T03:11:41;14.70;63.00
13569;DHT22;6856;51.460;7.158;2024-03-22T03:14:14;14.70;62.30
13569;DHT22;6856;51.460;7.158;2024-03-22T03:16:48;14.80;62.60
13569;DHT22;6856;51.460;7.158;2024-03-22T03:19:20;14.70;62.40
13569;DHT22;6856;51.460;7.158;2024-03-22T03:21:53;14.80;62.40
13569;DHT22;6856;51.460;7.158;2024-03-22T03:24:25;14.80;62.50
13569;DHT22;6856;51.460;7.158;2024-03-22T03:27:00;14.70;62.40
13569;DHT22;6856;51.460;7.158;2024-03-22T03:29:33;14.80;62.60
13569;DHT22;6856;51.460;7.158;2024-03-22T03:32:08;14.70;62.40
13569;DHT22;6856;51.460;7.158;2024-03-22T03:34:40;14.80;62.60
13569;DHT22;6856;51.460;7.158;2024-03-22T03:37:14;14.70;62.50
13569;DHT22;6856;51.460;7.158;2024-03-22T03:39:46;14.80;62.60
13569;DHT22;6856;51.460;7.158;2024-03-22T03:42:20;14.70;62.50
13569;DHT22;6856;51.460;7.158;2024-03-22T03:44:52;14.80;62.50
13569;DHT22;6856;51.460;7.158;2024-03-22T03:47:25;14.80;62.60
13569;DHT22;6856;51.460;7.158;2024-03-22T03:49:57;14.70;62.60
13569;DHT22;6856;51.460;7.158;2024-03-22T03:52:31;14.80;62.50
13569;DHT22;6856;51.460;7.158;2024-03-22T03:55:04;14.80;62.70
13569;DHT22;6856;51.460;7.158;2024-03-22T03:57:38;14.80;62.70
13569;DHT22;6856;51.460;7.158;2024-03-22T04:00:11;14.70;62.50
13569;DHT22;6856;51.460;7.158;2024-03-22T04:02:45;14.70;62.60
13569;DHT22;6856;51.460;7.158;2024-03-22T04:05:17;14.70;62.50
13569;DHT22;6856;51.460;7.158;2024-03-22T04:07:50;14.70;62.40
13569;DHT22;6856;51.460;7.158;2024-03-22T04:10:22;14.70;62.50
13569;DHT22;6856;51.460;7.158;2024-03-22T04:12:57;14.70;62.40
13569;DHT22;6856;51.460;7.158;2024-03-22T04:15:29;14.70;62.50
13569;DHT22;6856;51.460;7.158;2024-03-22T04:18:06;14.70;62.50
13569;DHT22;6856;51.460;7.158;2024-03-22T04:20:38;14.70;62.50
13569;DHT22;6856;51.460;7.158;2024-03-22T04:23:11;14.70;62.60
13569;DHT22;6856;51.460;7.158;2024-03-22T04:25:52;14.70;62.50
13569;DHT22;6856;51.460;7.158;2024-03-22T04:28:28;14.70;62.70
13569;DHT22;6856;51.460;7.158;2024-03-22T04:31:02;14.70;62.50
13569;DHT22;6856;51.460;7.158;2024-03-22T04:33:37;14.60;62.50
13569;DHT22;6856;51.460;7.158;2024-03-22T04:36:09;14.70;62.50
13569;DHT22;6856;51.460;7.158;2024-03-22T04:38:42;14.60;62.40
13569;DHT22;6856;51.460;7.158;2024-03-22T04:41:15;14.60;62.30
13569;DHT22;6856;51.460;7.158;2024-03-22T04:43:50;14.60;62.30
13569;DHT22;6856;51.460;7.158;2024-03-22T04:46:23;14.60;62.30
13569;DHT22;6856;51.460;7.158;2024-03-22T04:48:56;14.60;62.20
13569;DHT22;6856;51.460;7.158;2024-03-22T04:51:28;14.60;61.70
13569;DHT22;6856;51.460;7.158;2024-03-22T04:54:02;14.60;62.50
13569;DHT22;6856;51.460;7.158;2024-03-22T04:56:34;14.60;62.30
13569;DHT22;6856;51.460;7.158;2024-03-22T04:59:09;14.60;62.40
13569;DHT22;6856;51.460;7.158;2024-03-22T05:01:41;14.60;62.40
13569;DHT22;6856;51.460;7.158;2024-03-22T05:04:16;14.60;62.40
13569;DHT22;6856;51.460;7.158;2024-03-22T05:06:49;14.60;62.30
13569;DHT22;6856;51.460;7.158;2024-03-22T05:09:22;14.60;62.20
13569;DHT22;6856;51.460;7.158;2024-03-22T05:11:55;14.60;62.30
13569;DHT22;6856;51.460;7.158;2024-03-22T05:14:29;14.60;62.20
13569;DHT22;6856;51.460;7.158;2024-03-22T05:17:00;14.60;62.20
13569;DHT22;6856;51.460;7.158;2024-03-22T05:19:33;14.60;62.30
13569;DHT22;6856;51.460;7.158;2024-03-22T05:22:05;14.60;62.20
13569;DHT22;6856;51.460;7.158;2024-03-22T05:24:38;14.70;62.20
13569;DHT22;6856;51.460;7.158;2024-03-22T05:27:10;14.70;62.20
13569;DHT22;6856;51.460;7.158;2024-03-22T05:29:46;14.70;62.20
13569;DHT22;6856;51.460;7.158;2024-03-22T05:32:18;14.70;62.20
13569;DHT22;6856;51.460;7.158;2024-03-22T05:34:51;14.70;62.10
13569;DHT22;6856;51.460;7.158;2024-03-22T05:37:23;14.70;62.20
13569;DHT22;6856;51.460;7.158;2024-03-22T05:39:56;14.70;62.00
13569;DHT22;6856;51.460;7.158;2024-03-22T05:42:30;14.70;62.10
13569;DHT22;6856;51.460;7.158;2024-03-22T05:45:05;14.70;62.00
13569;DHT22;6856;51.460;7.158;2024-03-22T05:47:37;14.70;62.10
13569;DHT22;6856;51.460;7.158;2024-03-22T05:50:10;14.70;62.00
13569;DHT22;6856;51.460;7.158;2024-03-22T05:52:42;14.70;61.90
13569;DHT22;6856;51.460;7.158;2024-03-22T05:55:15;14.70;61.90
13569;DHT22;6856;51.460;7.158;2024-03-22T05:57:47;14.70;62.00
13569;DHT22;6856;51.460;7.158;2024-03-22T06:00:22;14.70;61.80
13569;DHT22;6856;51.460;7.158;2024-03-22T06:02:54;14.70;61.90
13569;DHT22;6856;51.460;7.158;2024-03-22T06:05:28;14.80;62.00
13569;DHT22;6856;51.460;7.158;2024-03-22T06:08:01;14.80;61.90
13569;DHT22;6856;51.460;7.158;2024-03-22T06:10:34;14.80;62.00
13569;DHT22;6856;51.460;7.158;2024-03-22T06:13:06;14.80;61.90
13569;DHT22;6856;51.460;7.158;2024-03-22T06:15:42;14.80;61.90
13569;DHT22;6856;51.460;7.158;2024-03-22T06:18:16;14.70;61.90
13569;DHT22;6856;51.460;7.158;2024-03-22T06:20:49;14.80;61.80
13569;DHT22;6856;51.460;7.158;2024-03-22T06:23:21;14.80;61.80
13569;DHT22;6856;51.460;7.158;2024-03-22T06:25:55;14.80;61.80
13569;DHT22;6856;51.460;7.158;2024-03-22T06:28:28;14.80;61.90
13569;DHT22;6856;51.460;7.158;2024-03-22T06:31:02;14.80;61.80
13569;DHT22;6856;51.460;7.158;2024-03-22T06:33:34;14.80;61.80
13569;DHT22;6856;51.460;7.158;2024-03-22T06:36:07;14.80;61.60
13569;DHT22;6856;51.460;7.158;2024-03-22T06:38:39;14.80;61.80
13569;DHT22;6856;51.460;7.158;2024-03-22T06:41:12;14.90;61.70
13569;DHT22;6856;51.460;7.158;2024-03-22T06:43:45;14.90;61.90
13569;DHT22;6856;51.460;7.158;2024-03-22T06:46:21;14.90;62.00
13569;DHT22;6856;51.460;7.158;2024-03-22T06:48:54;14.90;61.70
13569;DHT22;6856;51.460;7.158;2024-03-22T06:51:27;14.90;61.80
13569;DHT22;6856;51.460;7.158;2024-03-22T06:53:59;14.90;61.50
13569;DHT22;6856;51.460;7.158;2024-03-22T06:56:33;15.00;61.80
13569;DHT22;6856;51.460;7.158;2024-03-22T06:59:05;15.00;61.60
13569;DHT22;6856;51.460;7.158;2024-03-22T07:01:39;15.00;61.70
13569;DHT22;6856;51.460;7.158;2024-03-22T07:04:14;15.00;61.70
13569;DHT22;6856;51.460;7.158;2024-03-22T07:06:49;15.00;61.50
13569;DHT22;6856;51.460;7.158;2024-03-22T07:09:22;15.00;61.50
13569;DHT22;6856;51.460;7.158;2024-03-22T07:11:55;15.10;61.60
13569;DHT22;6856;51.460;7.158;2024-03-22T07:14:28;15.10;61.40
13569;DHT22;6856;51.460;7.158;2024-03-22T07:17:03;15.10;61.70
13569;DHT22;6856;51.460;7.158;2024-03-22T07:19:34;15.10;61.60
13569;DHT22;6856;51.460;7.158;2024-03-22T07:22:08;15.20;61.70
13569;DHT22;6856;51.460;7.158;2024-03-22T07:24:40;15.20;62.40
13569;DHT22;6856;51.460;7.158;2024-03-22T07:27:13;15.20;61.70
13569;DHT22;6856;51.460;7.158;2024-03-22T07:29:46;15.30;61.80
13569;DHT22;6856;51.460;7.158;2024-03-22T07:32:26;15.30;61.80
13569;DHT22;6856;51.460;7.158;2024-03-22T07:34:58;15.30;61.80
13569;DHT22;6856;51.460;7.158;2024-03-22T07:37:32;15.30;61.80
13569;DHT22;6856;51.460;7.158;2024-03-22T07:40:07;15.40;61.60
13569;DHT22;6856;51.460;7.158;2024-03-22T07:42:40;15.40;61.70
13569;DHT22;6856;51.460;7.158;2024-03-22T07:45:15;15.50;61.70
13569;DHT22;6856;51.460;7.158;2024-03-22T07:47:48;15.50;61.80
13569;DHT22;6856;51.460;7.158;2024-03-22T07:50:21;15.50;61.70
13569;DHT22;6856;51.460;7.158;2024-03-22T07:52:55;15.60;61.70
13569;DHT22;6856;51.460;7.158;2024-03-22T07:55:31;15.60;61.70
13569;DHT22;6856;51.460;7.158;2024-03-22T07:58:04;15.70;61.60
13569;DHT22;6856;51.460;7.158;2024-03-22T08:00:41;15.70;61.40
13569;DHT22;6856;51.460;7.158;2024-03-22T08:03:16;15.70;61.20
13569;DHT22;6856;51.460;7.158;2024-03-22T08:05:51;15.80;61.20
13569;DHT22;6856;51.460;7.158;2024-03-22T08:08:23;15.80;61.20
13569;DHT22;6856;51.460;7.158;2024-03-22T08:10:56;15.80;61.10
13569;DHT22;6856;51.460;7.158;2024-03-22T08:13:30;15.80;61.10
13569;DHT22;6856;51.460;7.158;2024-03-22T08:16:04;15.90;61.10
13569;DHT22;6856;51.460;7.158;2024-03-22T08:18:38;15.90;61.00
13569;DHT22;6856;51.460;7.158;2024-03-22T08:21:11;16.00;60.90
13569;DHT22;6856;51.460;7.158;2024-03-22T08:23:43;16.00;60.60
13569;DHT22;6856;51.460;7.158;2024-03-22T08:26:19;16.00;60.30
13569;DHT22;6856;51.460;7.158;2024-03-22T08:28:51;16.10;60.30
13569;DHT22;6856;51.460;7.158;2024-03-22T08:31:24;16.10;60.00
13569;DHT22;6856;51.460;7.158;2024-03-22T08:33:58;16.10;59.90
13569;DHT22;6856;51.460;7.158;2024-03-22T08:36:32;16.20;59.80
13569;DHT22;6856;51.460;7.158;2024-03-22T08:39:07;16.20;59.60
13569;DHT22;6856;51.460;7.158;2024-03-22T08:41:41;16.30;59.60
13569;DHT22;6856;51.460;7.158;2024-03-22T08:44:13;16.30;59.30
13569;DHT22;6856;51.460;7.158;2024-03-22T08:46:46;16.30;59.10
13569;DHT22;6856;51.460;7.158;2024-03-22T08:49:20;16.30;58.80
13569;DHT22;6856;51.460;7.158;2024-03-22T08:51:55;16.40;58.90
13569;DHT22;6856;51.460;7.158;2024-03-22T08:54:27;16.30;58.80
13569;DHT22;6856;51.460;7.158;2024-03-22T08:57:02;16.40;58.70
13569;DHT22;6856;51.460;7.158;2024-03-22T08:59:35;16.40;58.40
13569;DHT22;6856;51.460;7.158;2024-03-22T09:02:09;16.40;58.30
13569;DHT22;6856;51.460;7.158;2024-03-22T09:04:45;16.40;58.10
13569;DHT22;6856;51.460;7.158;2024-03-22T09:07:18;16.40;58.10
13569;DHT22;6856;51.460;7.158;2024-03-22T09:09:52;16.50;58.20
13569;DHT22;6856;51.460;7.158;2024-03-22T09:12:28;16.50;58.30
13569;DHT22;6856;51.460;7.158;2024-03-22T09:14:59;16.50;58.20
13569;DHT22;6856;51.460;7.158;2024-03-22T09:17:32;16.50;58.00
13569;DHT22;6856;51.460;7.158;2024-03-22T09:20:07;16.60;57.90
13569;DHT22;6856;51.460;7.158;2024-03-22T09:22:40;16.60;58.30
13569;DHT22;6856;51.460;7.158;2024-03-22T09:25:14;16.60;57.60
13569;DHT22;6856;51.460;7.158;2024-03-22T09:27:50;16.70;57.50
13569;DHT22;6856;51.460;7.158;2024-03-22T09:30:22;16.70;57.60
13569;DHT22;6856;51.460;7.158;2024-03-22T09:32:59;16.80;57.40
13569;DHT22;6856;51.460;7.158;2024-03-22T09:35:33;16.80;57.30
13569;DHT22;6856;51.460;7.158;2024-03-22T09:38:06;16.90;57.30
13569;DHT22;6856;51.460;7.158;2024-03-22T09:40:40;16.90;57.20
13569;DHT22;6856;51.460;7.158;2024-03-22T09:43:16;17.00;57.30
13569;DHT22;6856;51.460;7.158;2024-03-22T09:45:50;17.10;57.10
13569;DHT22;6856;51.460;7.158;2024-03-22T09:48:23;17.10;57.00
13569;DHT22;6856;51.460;7.158;2024-03-22T09:50:58;17.20;56.90
13569;DHT22;6856;51.460;7.158;2024-03-22T09:53:33;17.20;56.30
13569;DHT22;6856;51.460;7.158;2024-03-22T09:56:07;17.30;56.60
13569;DHT22;6856;51.460;7.158;2024-03-22T09:58:41;17.30;56.40
13569;DHT22;6856;51.460;7.158;2024-03-22T10:01:13;17.30;56.20
13569;DHT22;6856;51.460;7.158;2024-03-22T10:03:46;17.40;56.10
13569;DHT22;6856;51.460;7.158;2024-03-22T10:06:21;17.40;56.10
13569;DHT22;6856;51.460;7.158;2024-03-22T10:08:57;17.40;56.00
13569;DHT22;6856;51.460;7.158;2024-03-22T10:11:30;17.40;56.20
13569;DHT22;6856;51.460;7.158;2024-03-22T10:14:05;17.40;55.90
13569;DHT22;6856;51.460;7.158;2024-03-22T10:16:36;17.50;55.90
13569;DHT22;6856;51.460;7.158;2024-03-22T10:19:10;17.50;56.00
13569;DHT22;6856;51.460;7.158;2024-03-22T10:21:43;17.50;55.90
13569;DHT22;6856;51.460;7.158;2024-03-22T10:24:16;17.50;56.00
13569;DHT22;6856;51.460;7.158;2024-03-22T10:26:48;17.50;55.90
13569;DHT22;6856;51.460;7.158;2024-03-22T10:29:22;17.50;55.90
13569;DHT22;6856;51.460;7.158;2024-03-22T10:31:55;17.50;55.80
13569;DHT22;6856;51.460;7.158;2024-03-22T10:34:31;17.30;55.80
13569;DHT22;6856;51.460;7.158;2024-03-22T10:37:08;17.60;55.90
13569;DHT22;6856;51.460;7.158;2024-03-22T10:39:46;17.70;55.80
13569;DHT22;6856;51.460;7.158;2024-03-22T10:42:22;17.70;56.00
13569;DHT22;6856;51.460;7.158;2024-03-22T10:44:55;17.70;56.00
13569;DHT22;6856;51.460;7.158;2024-03-22T10:47:29;17.70;56.00
13569;DHT22;6856;51.460;7.158;2024-03-22T10:50:05;17.80;55.90
13569;DHT22;6856;51.460;7.158;2024-03-22T10:52:43;17.80;55.80
13569;DHT22;6856;51.460;7.158;2024-03-22T10:55:34;17.80;55.70
13569;DHT22;6856;51.460;7.158;2024-03-22T10:58:08;17.80;55.80
13569;DHT22;6856;51.460;7.158;2024-03-22T11:00:50;17.90;55.80
13569;DHT22;6856;51.460;7.158;2024-03-22T11:03:25;17.90;56.30
13569;DHT22;6856;51.460;7.158;2024-03-22T11:06:07;18.00;55.60
13569;DHT22;6856;51.460;7.158;2024-03-22T11:08:41;18.00;55.50
13569;DHT22;6856;51.460;7.158;2024-03-22T11:11:15;18.00;55.30
13569;DHT22;6856;51.460;7.158;2024-03-22T11:13:49;18.00;55.50
13569;DHT22;6856;51.460;7.158;2024-03-22T11:16:22;18.10;55.60
13569;DHT22;6856;51.460;7.158;2024-03-22T11:18:55;18.10;55.60
13569;DHT22;6856;51.460;7.158;2024-03-22T11:21:28;18.10;55.50
13569;DHT22;6856;51.460;7.158;2024-03-22T11:24:06;18.20;55.50
13569;DHT22;6856;51.460;7.158;2024-03-22T11:26:41;18.20;55.40
13569;DHT22;6856;51.460;7.158;2024-03-22T11:29:15;18.30;55.50
13569;DHT22;6856;51.460;7.158;2024-03-22T11:31:48;18.30;55.20
13569;DHT22;6856;51.460;7.158;2024-03-22T11:34:21;18.30;55.00
13569;DHT22;6856;51.460;7.158;2024-03-22T11:36:54;18.40;54.80
13569;DHT22;6856;51.460;7.158;2024-03-22T11:39:27;18.40;54.80
13569;DHT22;6856;51.460;7.158;2024-03-22T11:42:01;18.40;54.70
13569;DHT22;6856;51.460;7.158;2024-03-22T11:44:35;18.40;54.50
13569;DHT22;6856;51.460;7.158;2024-03-22T11:47:11;18.40;54.30
13569;DHT22;6856;51.460;7.158;2024-03-22T11:49:43;18.40;54.00
13569;DHT22;6856;51.460;7.158;2024-03-22T11:52:16;18.40;54.30
13569;DHT22;6856;51.460;7.158;2024-03-22T11:54:52;18.40;54.20
13569;DHT22;6856;51.460;7.158;2024-03-22T11:57:27;18.30;54.20
13569;DHT22;6856;51.460;7.158;2024-03-22T12:00:01;18.20;54.20
13569;DHT22;6856;51.460;7.158;2024-03-22T12:02:38;18.20;54.40
13569;DHT22;6856;51.460;7.158;2024-03-22T12:05:10;18.20;54.20
13569;DHT22;6856;51.460;7.158;2024-03-22T12:07:44;18.10;54.30
13569;DHT22;6856;51.460;7.158;2024-03-22T12:10:18;18.10;54.40
13569;DHT22;6856;51.460;7.158;2024-03-22T12:12:52;18.00;54.50
13569;DHT22;6856;51.460;7.158;2024-03-22T12:15:25;18.00;54.40
13569;DHT22;6856;51.460;7.158;2024-03-22T12:17:58;17.90;54.50
13569;DHT22;6856;51.460;7.158;2024-03-22T12:20:32;17.90;54.60
13569;DHT22;6856;51.460;7.158;2024-03-22T12:23:05;17.80;54.50
13569;DHT22;6856;51.460;7.158;2024-03-22T12:25:40;17.80;54.60
13569;DHT22;6856;51.460;7.158;2024-03-22T12:28:13;17.80;54.60
13569;DHT22;6856;51.460;7.158;2024-03-22T12:30:50;17.70;54.90
13569;DHT22;6856;51.460;7.158;2024-03-22T12:33:23;17.70;55.00
13569;DHT22;6856;51.460;7.158;2024-03-22T12:35:57;17.60;55.00
13569;DHT22;6856;51.460;7.158;2024-03-22T12:38:36;17.60;55.00
13569;DHT22;6856;51.460;7.158;2024-03-22T12:41:23;17.50;55.00
13569;DHT22;6856;51.460;7.158;2024-03-22T12:44:05;17.40;55.20
13569;DHT22;6856;51.460;7.158;2024-03-22T12:46:37;17.40;55.30
13569;DHT22;6856;51.460;7.158;2024-03-22T12:49:14;17.40;55.50
13569;DHT22;6856;51.460;7.158;2024-03-22T12:51:47;17.40;55.80
13569;DHT22;6856;51.460;7.158;2024-03-22T12:54:20;17.30;55.70
13569;DHT22;6856;51.460;7.158;2024-03-22T12:56:54;17.30;55.80
13569;DHT22;6856;51.460;7.158;2024-03-22T12:59:26;17.20;55.90
13569;DHT22;6856;51.460;7.158;2024-03-22T13:01:59;17.10;56.10
13569;DHT22;6856;51.460;7.158;2024-03-22T13:04:32;17.10;56.30
13569;DHT22;6856;51.460;7.158;2024-03-22T13:07:06;17.00;56.50
13569;DHT22;6856;51.460;7.158;2024-03-22T13:09:37;16.90;56.70
13569;DHT22;6856;51.460;7.158;2024-03-22T13:12:12;16.90;56.90
13569;DHT22;6856;51.460;7.158;2024-03-22T13:14:44;16.90;56.90
13569;DHT22;6856;51.460;7.158;2024-03-22T13:17:19;16.90;56.90
13569;DHT22;6856;51.460;7.158;2024-03-22T13:19:53;16.80;57.00
13569;DHT22;6856;51.460;7.158;2024-03-22T13:22:26;16.80;57.10
13569;DHT22;6856;51.460;7.158;2024-03-22T13:24:58;16.80;57.00
13569;DHT22;6856;51.460;7.158;2024-03-22T13:27:32;16.70;56.90
13569;DHT22;6856;51.460;7.158;2024-03-22T13:30:06;16.70;57.00
13569;DHT22;6856;51.460;7.158;2024-03-22T13:32:40;16.60;57.20
13569;DHT22;6856;51.460;7.158;2024-03-22T13:35:12;16.60;57.10
13569;DHT22;6856;51.460;7.158;2024-03-22T13:37:45;16.50;57.10
13569;DHT22;6856;51.460;7.158;2024-03-22T13:40:18;16.50;57.30
13569;DHT22;6856;51.460;7.158;2024-03-22T13:42:57;16.40;57.40
13569;DHT22;6856;51.460;7.158;2024-03-22T13:45:29;16.40;56.90
13569;DHT22;6856;51.460;7.158;2024-03-22T13:48:10;16.30;57.50
13569;DHT22;6856;51.460;7.158;2024-03-22T13:50:42;16.30;57.70
13569;DHT22;6856;51.460;7.158;2024-03-22T13:53:18;16.20;57.50
13569;DHT22;6856;51.460;7.158;2024-03-22T13:55:50;16.20;57.80
13569;DHT22;6856;51.460;7.158;2024-03-22T13:58:29;16.20;57.80
13569;DHT22;6856;51.460;7.158;2024-03-22T14:01:03;16.10;57.60
13569;DHT22;6856;51.460;7.158;2024-03-22T14:03:36;16.10;57.80
13569;DHT22;6856;51.460;7.158;2024-03-22T14:06:08;16.10;58.00
13569;DHT22;6856;51.460;7.158;2024-03-22T14:08:42;16.10;58.10
13569;DHT22;6856;51.460;7.158;2024-03-22T14:11:15;16.10;58.60
13569;DHT22;6856;51.460;7.158;2024-03-22T14:13:51;16.10;58.20
13569;DHT22;6856;51.460;7.158;2024-03-22T14:16:22;16.10;58.10
13569;DHT22;6856;51.460;7.158;2024-03-22T14:18:56;16.10;58.10
13569;DHT22;6856;51.460;7.158;2024-03-22T14:21:28;16.00;58.10
13569;DHT22;6856;51.460;7.158;2024-03-22T14:24:01;16.00;58.00
13569;DHT22;6856;51.460;7.158;2024-03-22T14:26:34;16.00;58.10
13569;DHT22;6856;51.460;7.158;2024-03-22T14:29:14;16.00;58.10
13569;DHT22;6856;51.460;7.158;2024-03-22T14:31:46;16.00;57.90
13569;DHT22;6856;51.460;7.158;2024-03-22T14:34:19;15.90;57.90
13569;DHT22;6856;51.460;7.158;2024-03-22T14:36:51;15.90;58.00
13569;DHT22;6856;51.460;7.158;2024-03-22T14:39:25;15.90;58.00
13569;DHT22;6856;51.460;7.158;2024-03-22T14:42:00;15.80;57.50
13569;DHT22;6856;51.460;7.158;2024-03-22T14:44:34;15.80;58.00
13569;DHT22;6856;51.460;7.158;2024-03-22T14:47:07;15.80;58.20
13569;DHT22;6856;51.460;7.158;2024-03-22T14:49:40;15.80;58.40
13569;DHT22;6856;51.460;7.158;2024-03-22T14:52:12;15.70;58.50
13569;DHT22;6856;51.460;7.158;2024-03-22T14:54:45;15.70;58.60
13569;DHT22;6856;51.460;7.158;2024-03-22T14:57:18;15.70;58.70
13569;DHT22;6856;51.460;7.158;2024-03-22T14:59:53;15.70;58.70
13569;DHT22;6856;51.460;7.158;2024-03-22T15:02:26;15.60;59.00
13569;DHT22;6856;51.460;7.158;2024-03-22T15:04:59;15.60;59.20
13569;DHT22;6856;51.460;7.158;2024-03-22T15:07:31;15.50;59.30
13569;DHT22;6856;51.460;7.158;2024-03-22T15:10:04;15.50;59.30
13569;DHT22;6856;51.460;7.158;2024-03-22T15:12:38;15.50;59.40
13569;DHT22;6856;51.460;7.158;2024-03-22T15:15:14;15.40;59.20
13569;DHT22;6856;51.460;7.158;2024-03-22T15:17:46;15.30;59.30
13569;DHT22;6856;51.460;7.158;2024-03-22T15:20:21;15.30;59.40
13569;DHT22;6856;51.460;7.158;2024-03-22T15:22:52;15.20;59.80
13569;DHT22;6856;51.460;7.158;2024-03-22T15:25:25;15.10;59.80
13569;DHT22;6856;51.460;7.158;2024-03-22T15:27:58;15.10;60.10
13569;DHT22;6856;51.460;7.158;2024-03-22T15:30:32;15.10;60.30
13569;DHT22;6856;51.460;7.158;2024-03-22T15:33:05;15.10;60.60
13569;DHT22;6856;51.460;7.158;2024-03-22T15:35:40;15.00;60.60
13569;DHT22;6856;51.460;7.158;2024-03-22T15:38:17;15.00;60.80
13569;DHT22;6856;51.460;7.158;2024-03-22T15:40:51;15.00;60.90
13569;DHT22;6856;51.460;7.158;2024-03-22T15:43:23;15.00;60.90
13569;DHT22;6856;51.460;7.158;2024-03-22T15:45:58;15.00;60.90
13569;DHT22;6856;51.460;7.158;2024-03-22T15:48:30;15.10;61.10
13569;DHT22;6856;51.460;7.158;2024-03-22T15:51:03;15.10;61.10
13569;DHT22;6856;51.460;7.158;2024-03-22T15:53:37;15.10;61.10
13569;DHT22;6856;51.460;7.158;2024-03-22T15:56:12;15.10;61.20
13569;DHT22;6856;51.460;7.158;2024-03-22T15:58:46;15.10;61.10
13569;DHT22;6856;51.460;7.158;2024-03-22T16:01:20;15.10;61.30
13569;DHT22;6856;51.460;7.158;2024-03-22T16:03:52;15.10;61.20
13569;DHT22;6856;51.460;7.158;2024-03-22T16:06:25;15.20;61.20
13569;DHT22;6856;51.460;7.158;2024-03-22T16:08:57;15.20;61.10
13569;DHT22;6856;51.460;7.158;2024-03-22T16:11:31;15.20;60.90
13569;DHT22;6856;51.460;7.158;2024-03-22T16:14:03;15.20;60.90
13569;DHT22;6856;51.460;7.158;2024-03-22T16:16:40;15.20;61.40
13569;DHT22;6856;51.460;7.158;2024-03-22T16:19:15;15.20;61.10
13569;DHT22;6856;51.460;7.158;2024-03-22T16:21:49;15.20;61.00
13569;DHT22;6856;51.460;7.158;2024-03-22T16:24:21;15.20;61.20
13569;DHT22;6856;51.460;7.158;2024-03-22T16:26:54;15.20;61.20